Newmanstown, Pennsylvania
Current Conditions -  °F | °C
As of 3:54 PM on Saturday 22 Nov 2014 (Local Time) from KRDG Reporting Station
Overcast Overcast  
Wind Chill: 38°   Ceiling: 4300
Heat Index: 43°   Visibility: 10mi
Dew Point: 15°   Wind: 8mph
Humidity: 32%   Direction: 190°S
Pressure: 30.27"   Gusts: NA
Location:  40.35°N, 76.21°W
Report Text: KRDG 222054Z AUTO 19007KT 10SM BKN043 OVC060 06/M09 A3027 RMK AO2 SLP258 60000 T00611094 56020
Loading
Personal Weather Stations






























Interactive Weather Map New forecast layout! Learn more

10-Day Weather Forecast

Advertisements
Track Severe Weather on mobile